sensor_id;sensor_type;location;lat;lon;timestamp;P1;durP1;ratioP1;P2;durP2;ratioP2
23406;SDS011;11876;53.438;18.942;2024-03-02T00:02:40;59.42;;;41.55;;
23406;SDS011;11876;53.438;18.942;2024-03-02T00:05:51;63.22;;;41.80;;
23406;SDS011;11876;53.438;18.942;2024-03-02T00:08:58;60.30;;;43.10;;
23406;SDS011;11876;53.438;18.942;2024-03-02T00:12:05;55.67;;;41.35;;
23406;SDS011;11876;53.438;18.942;2024-03-02T00:19:05;59.67;;;42.42;;
23406;SDS011;11876;53.438;18.942;2024-03-02T00:22:10;69.63;;;44.70;;
23406;SDS011;11876;53.438;18.942;2024-03-02T00:31:28;54.22;;;40.97;;
23406;SDS011;11876;53.438;18.942;2024-03-02T00:34:31;58.73;;;42.67;;
23406;SDS011;11876;53.438;18.942;2024-03-02T00:37:37;53.45;;;39.47;;
23406;SDS011;11876;53.438;18.942;2024-03-02T00:40:39;56.47;;;42.58;;
23406;SDS011;11876;53.438;18.942;2024-03-02T00:47:08;40.10;;;30.48;;
23406;SDS011;11876;53.438;18.942;2024-03-02T00:50:10;56.60;;;42.95;;
23406;SDS011;11876;53.438;18.942;2024-03-02T00:53:26;56.50;;;43.47;;
23406;SDS011;11876;53.438;18.942;2024-03-02T00:56:29;53.97;;;39.00;;
23406;SDS011;11876;53.438;18.942;2024-03-02T00:59:35;57.05;;;42.45;;
23406;SDS011;11876;53.438;18.942;2024-03-02T01:05:48;57.33;;;42.33;;
23406;SDS011;11876;53.438;18.942;2024-03-02T01:08:50;59.35;;;45.25;;
23406;SDS011;11876;53.438;18.942;2024-03-02T01:11:54;55.45;;;41.55;;
23406;SDS011;11876;53.438;18.942;2024-03-02T01:14:56;60.13;;;43.35;;
23406;SDS011;11876;53.438;18.942;2024-03-02T01:17:59;56.67;;;41.28;;
23406;SDS011;11876;53.438;18.942;2024-03-02T01:21:01;62.28;;;45.22;;
23406;SDS011;11876;53.438;18.942;2024-03-02T01:24:04;62.20;;;40.60;;
23406;SDS011;11876;53.438;18.942;2024-03-02T01:27:06;57.40;;;43.42;;
23406;SDS011;11876;53.438;18.942;2024-03-02T01:30:10;56.90;;;41.20;;
23406;SDS011;11876;53.438;18.942;2024-03-02T01:33:13;60.03;;;44.20;;
23406;SDS011;11876;53.438;18.942;2024-03-02T01:36:19;71.43;;;50.60;;
23406;SDS011;11876;53.438;18.942;2024-03-02T01:39:23;55.65;;;42.90;;
23406;SDS011;11876;53.438;18.942;2024-03-02T01:42:25;59.45;;;44.83;;
23406;SDS011;11876;53.438;18.942;2024-03-02T01:45:28;55.33;;;41.63;;
23406;SDS011;11876;53.438;18.942;2024-03-02T01:48:32;61.30;;;43.78;;
23406;SDS011;11876;53.438;18.942;2024-03-02T01:51:38;57.33;;;42.22;;
23406;SDS011;11876;53.438;18.942;2024-03-02T01:54:40;62.08;;;43.15;;
23406;SDS011;11876;53.438;18.942;2024-03-02T01:57:43;45.80;;;32.45;;
23406;SDS011;11876;53.438;18.942;2024-03-02T02:00:47;59.92;;;43.42;;
23406;SDS011;11876;53.438;18.942;2024-03-02T02:03:53;55.15;;;41.30;;
23406;SDS011;11876;53.438;18.942;2024-03-02T02:07:01;55.63;;;42.20;;
23406;SDS011;11876;53.438;18.942;2024-03-02T02:10:04;54.13;;;41.15;;
23406;SDS011;11876;53.438;18.942;2024-03-02T02:13:07;53.57;;;40.33;;
23406;SDS011;11876;53.438;18.942;2024-03-02T02:16:18;57.08;;;42.42;;
23406;SDS011;11876;53.438;18.942;2024-03-02T02:19:22;55.85;;;40.45;;
23406;SDS011;11876;53.438;18.942;2024-03-02T02:22:24;52.28;;;42.28;;
23406;SDS011;11876;53.438;18.942;2024-03-02T02:25:27;52.78;;;40.53;;
23406;SDS011;11876;53.438;18.942;2024-03-02T02:28:31;57.88;;;41.22;;
23406;SDS011;11876;53.438;18.942;2024-03-02T02:31:41;53.63;;;40.95;;
23406;SDS011;11876;53.438;18.942;2024-03-02T02:34:44;58.95;;;42.25;;
23406;SDS011;11876;53.438;18.942;2024-03-02T02:37:55;53.25;;;40.08;;
23406;SDS011;11876;53.438;18.942;2024-03-02T02:41:04;58.70;;;41.38;;
23406;SDS011;11876;53.438;18.942;2024-03-02T02:44:21;74.43;;;47.03;;
23406;SDS011;11876;53.438;18.942;2024-03-02T02:47:25;54.17;;;41.72;;
23406;SDS011;11876;53.438;18.942;2024-03-02T02:50:47;65.40;;;44.40;;
23406;SDS011;11876;53.438;18.942;2024-03-02T02:53:57;55.30;;;40.10;;
23406;SDS011;11876;53.438;18.942;2024-03-02T02:57:05;58.85;;;42.88;;
23406;SDS011;11876;53.438;18.942;2024-03-02T03:00:15;57.67;;;40.38;;
23406;SDS011;11876;53.438;18.942;2024-03-02T03:03:24;55.60;;;39.78;;
23406;SDS011;11876;53.438;18.942;2024-03-02T03:06:29;57.53;;;39.95;;
23406;SDS011;11876;53.438;18.942;2024-03-02T03:09:37;58.28;;;41.72;;
23406;SDS011;11876;53.438;18.942;2024-03-02T03:12:48;55.40;;;41.25;;
23406;SDS011;11876;53.438;18.942;2024-03-02T03:15:59;53.35;;;38.80;;
23406;SDS011;11876;53.438;18.942;2024-03-02T03:19:07;55.08;;;40.47;;
23406;SDS011;11876;53.438;18.942;2024-03-02T03:22:13;55.65;;;41.97;;
23406;SDS011;11876;53.438;18.942;2024-03-02T03:25:16;55.13;;;41.35;;
23406;SDS011;11876;53.438;18.942;2024-03-02T03:28:20;58.63;;;41.80;;
23406;SDS011;11876;53.438;18.942;2024-03-02T03:31:29;68.22;;;44.15;;
23406;SDS011;11876;53.438;18.942;2024-03-02T03:34:34;69.55;;;46.38;;
23406;SDS011;11876;53.438;18.942;2024-03-02T03:37:41;58.28;;;40.72;;
23406;SDS011;11876;53.438;18.942;2024-03-02T03:40:45;60.55;;;43.45;;
23406;SDS011;11876;53.438;18.942;2024-03-02T03:43:52;56.10;;;42.00;;
23406;SDS011;11876;53.438;18.942;2024-03-02T03:47:05;73.70;;;47.58;;
23406;SDS011;11876;53.438;18.942;2024-03-02T03:50:14;61.08;;;44.05;;
23406;SDS011;11876;53.438;18.942;2024-03-02T03:53:20;59.00;;;40.35;;
23406;SDS011;11876;53.438;18.942;2024-03-02T03:56:26;66.28;;;42.10;;
23406;SDS011;11876;53.438;18.942;2024-03-02T03:59:33;58.05;;;41.75;;
23406;SDS011;11876;53.438;18.942;2024-03-02T04:02:50;62.05;;;42.47;;
23406;SDS011;11876;53.438;18.942;2024-03-02T04:05:55;62.40;;;43.22;;
23406;SDS011;11876;53.438;18.942;2024-03-02T04:09:03;62.10;;;42.90;;
23406;SDS011;11876;53.438;18.942;2024-03-02T04:12:12;65.50;;;45.03;;
23406;SDS011;11876;53.438;18.942;2024-03-02T04:15:28;64.55;;;44.97;;
23406;SDS011;11876;53.438;18.942;2024-03-02T04:18:34;67.10;;;46.65;;
23406;SDS011;11876;53.438;18.942;2024-03-02T04:21:45;62.42;;;42.88;;
23406;SDS011;11876;53.438;18.942;2024-03-02T04:24:52;65.18;;;43.00;;
23406;SDS011;11876;53.438;18.942;2024-03-02T04:28:00;70.53;;;47.75;;
23406;SDS011;11876;53.438;18.942;2024-03-02T04:31:15;61.30;;;43.85;;
23406;SDS011;11876;53.438;18.942;2024-03-02T04:34:21;97.70;;;67.00;;
23406;SDS011;11876;53.438;18.942;2024-03-02T04:37:34;63.85;;;43.75;;
23406;SDS011;11876;53.438;18.942;2024-03-02T04:40:39;68.22;;;47.20;;
23406;SDS011;11876;53.438;18.942;2024-03-02T04:43:46;65.53;;;46.88;;
23406;SDS011;11876;53.438;18.942;2024-03-02T04:46:53;73.20;;;49.67;;
23406;SDS011;11876;53.438;18.942;2024-03-02T04:49:58;70.57;;;52.30;;
23406;SDS011;11876;53.438;18.942;2024-03-02T04:53:04;79.57;;;48.92;;
23406;SDS011;11876;53.438;18.942;2024-03-02T04:56:12;67.70;;;45.47;;
23406;SDS011;11876;53.438;18.942;2024-03-02T04:59:38;75.68;;;50.42;;
23406;SDS011;11876;53.438;18.942;2024-03-02T05:02:43;80.05;;;51.50;;
23406;SDS011;11876;53.438;18.942;2024-03-02T05:05:52;68.20;;;45.70;;
23406;SDS011;11876;53.438;18.942;2024-03-02T05:08:58;75.95;;;48.05;;
23406;SDS011;11876;53.438;18.942;2024-03-02T05:12:05;72.15;;;48.63;;
23406;SDS011;11876;53.438;18.942;2024-03-02T05:15:28;72.70;;;49.40;;
23406;SDS011;11876;53.438;18.942;2024-03-02T05:18:32;66.45;;;43.72;;
23406;SDS011;11876;53.438;18.942;2024-03-02T05:21:36;75.93;;;47.88;;
23406;SDS011;11876;53.438;18.942;2024-03-02T05:24:40;66.22;;;43.80;;
23406;SDS011;11876;53.438;18.942;2024-03-02T05:27:44;74.10;;;47.55;;
23406;SDS011;11876;53.438;18.942;2024-03-02T05:30:50;72.35;;;46.45;;
23406;SDS011;11876;53.438;18.942;2024-03-02T05:33:56;67.95;;;45.42;;
23406;SDS011;11876;53.438;18.942;2024-03-02T05:36:59;76.78;;;48.78;;
23406;SDS011;11876;53.438;18.942;2024-03-02T05:40:01;71.22;;;45.28;;
23406;SDS011;11876;53.438;18.942;2024-03-02T05:43:04;70.80;;;49.10;;
23406;SDS011;11876;53.438;18.942;2024-03-02T05:46:06;73.10;;;47.65;;
23406;SDS011;11876;53.438;18.942;2024-03-02T05:49:24;71.70;;;47.65;;
23406;SDS011;11876;53.438;18.942;2024-03-02T05:52:36;80.63;;;54.90;;
23406;SDS011;11876;53.438;18.942;2024-03-02T05:55:50;73.90;;;49.13;;
23406;SDS011;11876;53.438;18.942;2024-03-02T05:59:02;72.20;;;48.78;;
23406;SDS011;11876;53.438;18.942;2024-03-02T06:02:16;64.38;;;42.97;;
23406;SDS011;11876;53.438;18.942;2024-03-02T06:05:25;68.95;;;46.80;;
23406;SDS011;11876;53.438;18.942;2024-03-02T06:08:38;101.00;;;46.53;;
23406;SDS011;11876;53.438;18.942;2024-03-02T06:11:43;61.97;;;43.13;;
23406;SDS011;11876;53.438;18.942;2024-03-02T06:14:52;71.80;;;47.20;;
23406;SDS011;11876;53.438;18.942;2024-03-02T06:17:59;63.75;;;44.40;;
23406;SDS011;11876;53.438;18.942;2024-03-02T06:21:03;72.07;;;45.78;;
23406;SDS011;11876;53.438;18.942;2024-03-02T06:24:25;74.30;;;46.53;;
23406;SDS011;11876;53.438;18.942;2024-03-02T06:27:31;70.03;;;44.97;;
23406;SDS011;11876;53.438;18.942;2024-03-02T06:30:35;59.72;;;42.85;;
23406;SDS011;11876;53.438;18.942;2024-03-02T06:33:39;73.55;;;46.72;;
23406;SDS011;11876;53.438;18.942;2024-03-02T06:39:49;68.38;;;44.80;;
23406;SDS011;11876;53.438;18.942;2024-03-02T06:42:54;62.58;;;43.58;;
23406;SDS011;11876;53.438;18.942;2024-03-02T06:46:15;62.92;;;43.85;;
23406;SDS011;11876;53.438;18.942;2024-03-02T06:49:19;61.72;;;40.97;;
23406;SDS011;11876;53.438;18.942;2024-03-02T06:52:24;66.20;;;45.22;;
23406;SDS011;11876;53.438;18.942;2024-03-02T06:55:29;62.15;;;42.05;;
23406;SDS011;11876;53.438;18.942;2024-03-02T06:58:38;71.25;;;45.72;;
23406;SDS011;11876;53.438;18.942;2024-03-02T07:01:44;49.92;;;35.08;;
23406;SDS011;11876;53.438;18.942;2024-03-02T07:04:50;66.82;;;45.75;;
23406;SDS011;11876;53.438;18.942;2024-03-02T07:07:53;66.15;;;43.78;;
23406;SDS011;11876;53.438;18.942;2024-03-02T07:10:57;68.45;;;45.35;;
23406;SDS011;11876;53.438;18.942;2024-03-02T07:14:01;62.72;;;42.30;;
23406;SDS011;11876;53.438;18.942;2024-03-02T07:17:07;61.28;;;43.92;;
23406;SDS011;11876;53.438;18.942;2024-03-02T07:20:20;65.80;;;43.78;;
23406;SDS011;11876;53.438;18.942;2024-03-02T07:23:32;65.57;;;41.60;;
23406;SDS011;11876;53.438;18.942;2024-03-02T07:26:42;68.20;;;42.15;;
23406;SDS011;11876;53.438;18.942;2024-03-02T07:29:51;68.25;;;40.38;;
23406;SDS011;11876;53.438;18.942;2024-03-02T07:32:56;63.65;;;40.92;;
23406;SDS011;11876;53.438;18.942;2024-03-02T07:36:00;52.20;;;35.53;;
23406;SDS011;11876;53.438;18.942;2024-03-02T07:39:06;58.75;;;41.40;;
23406;SDS011;11876;53.438;18.942;2024-03-02T07:42:11;54.25;;;38.65;;
23406;SDS011;11876;53.438;18.942;2024-03-02T07:45:15;60.70;;;38.97;;
23406;SDS011;11876;53.438;18.942;2024-03-02T07:48:22;64.15;;;39.50;;
23406;SDS011;11876;53.438;18.942;2024-03-02T07:51:32;53.92;;;39.05;;
23406;SDS011;11876;53.438;18.942;2024-03-02T07:54:50;67.15;;;45.70;;
23406;SDS011;11876;53.438;18.942;2024-03-02T07:58:00;58.92;;;40.67;;
23406;SDS011;11876;53.438;18.942;2024-03-02T08:01:14;51.17;;;37.63;;
23406;SDS011;11876;53.438;18.942;2024-03-02T08:04:27;56.03;;;38.33;;
23406;SDS011;11876;53.438;18.942;2024-03-02T08:07:48;58.13;;;39.22;;
23406;SDS011;11876;53.438;18.942;2024-03-02T08:10:55;53.58;;;38.90;;
23406;SDS011;11876;53.438;18.942;2024-03-02T08:14:09;59.22;;;43.03;;
23406;SDS011;11876;53.438;18.942;2024-03-02T08:17:24;52.22;;;39.10;;
23406;SDS011;11876;53.438;18.942;2024-03-02T08:20:38;53.50;;;38.28;;
23406;SDS011;11876;53.438;18.942;2024-03-02T08:23:48;56.80;;;40.75;;
23406;SDS011;11876;53.438;18.942;2024-03-02T08:26:53;64.10;;;41.63;;
23406;SDS011;11876;53.438;18.942;2024-03-02T08:30:07;60.00;;;41.53;;
23406;SDS011;11876;53.438;18.942;2024-03-02T08:33:14;56.42;;;38.40;;
23406;SDS011;11876;53.438;18.942;2024-03-02T08:36:20;59.45;;;40.72;;
23406;SDS011;11876;53.438;18.942;2024-03-02T08:39:27;55.53;;;41.10;;
23406;SDS011;11876;53.438;18.942;2024-03-02T08:42:32;51.95;;;39.92;;
23406;SDS011;11876;53.438;18.942;2024-03-02T08:45:39;58.63;;;40.53;;
23406;SDS011;11876;53.438;18.942;2024-03-02T08:48:46;57.85;;;40.10;;
23406;SDS011;11876;53.438;18.942;2024-03-02T08:51:51;62.05;;;42.63;;
23406;SDS011;11876;53.438;18.942;2024-03-02T08:55:00;60.20;;;42.20;;
23406;SDS011;11876;53.438;18.942;2024-03-02T08:58:10;51.25;;;37.05;;
23406;SDS011;11876;53.438;18.942;2024-03-02T09:01:18;57.70;;;43.22;;
23406;SDS011;11876;53.438;18.942;2024-03-02T09:04:29;58.17;;;40.15;;
23406;SDS011;11876;53.438;18.942;2024-03-02T09:07:37;58.47;;;41.97;;
23406;SDS011;11876;53.438;18.942;2024-03-02T09:10:49;59.00;;;40.25;;
23406;SDS011;11876;53.438;18.942;2024-03-02T09:14:02;64.50;;;44.10;;
23406;SDS011;11876;53.438;18.942;2024-03-02T09:17:09;95.07;;;48.22;;
23406;SDS011;11876;53.438;18.942;2024-03-02T09:20:17;58.13;;;42.83;;
23406;SDS011;11876;53.438;18.942;2024-03-02T09:23:25;54.42;;;41.25;;
23406;SDS011;11876;53.438;18.942;2024-03-02T09:26:33;58.70;;;42.20;;
23406;SDS011;11876;53.438;18.942;2024-03-02T09:29:48;53.60;;;40.83;;
23406;SDS011;11876;53.438;18.942;2024-03-02T09:32:56;55.33;;;40.80;;
23406;SDS011;11876;53.438;18.942;2024-03-02T09:36:04;55.55;;;43.33;;
23406;SDS011;11876;53.438;18.942;2024-03-02T09:39:08;53.75;;;38.10;;
23406;SDS011;11876;53.438;18.942;2024-03-02T09:42:14;50.30;;;39.15;;
23406;SDS011;11876;53.438;18.942;2024-03-02T09:45:23;58.10;;;42.40;;
23406;SDS011;11876;53.438;18.942;2024-03-02T09:48:32;60.50;;;37.63;;
23406;SDS011;11876;53.438;18.942;2024-03-02T09:51:37;65.15;;;41.38;;
23406;SDS011;11876;53.438;18.942;2024-03-02T09:54:44;52.95;;;39.53;;
23406;SDS011;11876;53.438;18.942;2024-03-02T09:57:55;68.00;;;41.47;;
23406;SDS011;11876;53.438;18.942;2024-03-02T10:01:05;53.85;;;38.78;;
23406;SDS011;11876;53.438;18.942;2024-03-02T10:04:16;74.20;;;54.22;;
23406;SDS011;11876;53.438;18.942;2024-03-02T10:07:20;58.95;;;45.33;;
23406;SDS011;11876;53.438;18.942;2024-03-02T10:10:40;56.50;;;38.65;;
23406;SDS011;11876;53.438;18.942;2024-03-02T10:13:49;58.00;;;43.97;;
23406;SDS011;11876;53.438;18.942;2024-03-02T10:17:04;54.30;;;39.38;;
23406;SDS011;11876;53.438;18.942;2024-03-02T10:20:25;56.83;;;40.58;;
23406;SDS011;11876;53.438;18.942;2024-03-02T10:23:31;58.58;;;40.83;;
23406;SDS011;11876;53.438;18.942;2024-03-02T10:26:37;50.00;;;36.15;;
23406;SDS011;11876;53.438;18.942;2024-03-02T10:29:46;48.90;;;35.53;;
23406;SDS011;11876;53.438;18.942;2024-03-02T10:32:57;53.80;;;38.15;;
23406;SDS011;11876;53.438;18.942;2024-03-02T10:36:13;56.72;;;39.97;;
23406;SDS011;11876;53.438;18.942;2024-03-02T10:39:23;49.40;;;33.22;;
23406;SDS011;11876;53.438;18.942;2024-03-02T10:42:27;48.38;;;37.33;;
23406;SDS011;11876;53.438;18.942;2024-03-02T10:45:30;54.95;;;37.47;;
23406;SDS011;11876;53.438;18.942;2024-03-02T10:48:36;55.45;;;34.60;;
23406;SDS011;11876;53.438;18.942;2024-03-02T10:51:39;45.00;;;29.30;;
23406;SDS011;11876;53.438;18.942;2024-03-02T10:54:42;45.33;;;31.67;;
23406;SDS011;11876;53.438;18.942;2024-03-02T10:58:04;47.17;;;35.30;;
23406;SDS011;11876;53.438;18.942;2024-03-02T11:01:23;49.40;;;32.50;;
23406;SDS011;11876;53.438;18.942;2024-03-02T11:04:28;47.13;;;35.78;;
23406;SDS011;11876;53.438;18.942;2024-03-02T11:07:38;48.08;;;34.42;;
23406;SDS011;11876;53.438;18.942;2024-03-02T11:10:45;46.97;;;32.72;;
23406;SDS011;11876;53.438;18.942;2024-03-02T11:13:57;50.20;;;34.95;;
23406;SDS011;11876;53.438;18.942;2024-03-02T11:17:11;48.58;;;35.38;;
23406;SDS011;11876;53.438;18.942;2024-03-02T11:20:21;50.58;;;35.33;;
23406;SDS011;11876;53.438;18.942;2024-03-02T11:23:33;46.40;;;34.83;;
23406;SDS011;11876;53.438;18.942;2024-03-02T11:26:39;49.88;;;38.67;;
23406;SDS011;11876;53.438;18.942;2024-03-02T11:29:46;42.08;;;32.45;;
23406;SDS011;11876;53.438;18.942;2024-03-02T11:32:56;51.17;;;37.65;;
23406;SDS011;11876;53.438;18.942;2024-03-02T11:35:59;53.10;;;35.13;;
23406;SDS011;11876;53.438;18.942;2024-03-02T11:39:09;53.95;;;36.63;;
23406;SDS011;11876;53.438;18.942;2024-03-02T11:42:18;50.95;;;36.15;;
23406;SDS011;11876;53.438;18.942;2024-03-02T11:45:26;47.65;;;33.30;;
23406;SDS011;11876;53.438;18.942;2024-03-02T11:48:31;44.88;;;33.90;;
23406;SDS011;11876;53.438;18.942;2024-03-02T11:51:35;48.30;;;32.00;;
23406;SDS011;11876;53.438;18.942;2024-03-02T11:54:43;46.33;;;32.85;;
23406;SDS011;11876;53.438;18.942;2024-03-02T11:57:55;48.47;;;33.75;;
23406;SDS011;11876;53.438;18.942;2024-03-02T12:00:58;35.38;;;27.17;;
23406;SDS011;11876;53.438;18.942;2024-03-02T12:04:05;45.70;;;35.33;;
23406;SDS011;11876;53.438;18.942;2024-03-02T12:07:12;49.15;;;35.22;;
23406;SDS011;11876;53.438;18.942;2024-03-02T12:10:27;43.83;;;34.08;;
23406;SDS011;11876;53.438;18.942;2024-03-02T12:13:30;51.22;;;35.05;;
23406;SDS011;11876;53.438;18.942;2024-03-02T12:16:34;71.90;;;44.78;;
23406;SDS011;11876;53.438;18.942;2024-03-02T12:19:44;46.28;;;33.47;;
23406;SDS011;11876;53.438;18.942;2024-03-02T12:22:53;46.45;;;35.83;;
23406;SDS011;11876;53.438;18.942;2024-03-02T12:26:05;43.10;;;35.40;;
23406;SDS011;11876;53.438;18.942;2024-03-02T12:29:15;45.55;;;33.75;;
23406;SDS011;11876;53.438;18.942;2024-03-02T12:32:26;83.75;;;34.42;;
23406;SDS011;11876;53.438;18.942;2024-03-02T12:35:35;46.95;;;35.13;;
23406;SDS011;11876;53.438;18.942;2024-03-02T12:38:52;49.75;;;35.30;;
23406;SDS011;11876;53.438;18.942;2024-03-02T12:41:56;49.70;;;35.08;;
23406;SDS011;11876;53.438;18.942;2024-03-02T12:45:03;50.92;;;33.65;;
23406;SDS011;11876;53.438;18.942;2024-03-02T12:48:05;42.10;;;32.03;;
23406;SDS011;11876;53.438;18.942;2024-03-02T12:51:08;45.33;;;32.22;;
23406;SDS011;11876;53.438;18.942;2024-03-02T12:54:11;41.17;;;29.73;;
23406;SDS011;11876;53.438;18.942;2024-03-02T12:57:18;51.40;;;33.72;;
23406;SDS011;11876;53.438;18.942;2024-03-02T13:00:26;45.50;;;31.80;;
23406;SDS011;11876;53.438;18.942;2024-03-02T13:03:38;41.92;;;30.13;;
23406;SDS011;11876;53.438;18.942;2024-03-02T13:06:49;44.83;;;34.40;;
23406;SDS011;11876;53.438;18.942;2024-03-02T13:09:55;43.55;;;32.55;;
23406;SDS011;11876;53.438;18.942;2024-03-02T13:12:58;40.97;;;31.08;;
23406;SDS011;11876;53.438;18.942;2024-03-02T13:16:01;43.45;;;33.35;;
23406;SDS011;11876;53.438;18.942;2024-03-02T13:19:14;47.00;;;34.80;;
23406;SDS011;11876;53.438;18.942;2024-03-02T13:22:21;44.85;;;33.80;;
23406;SDS011;11876;53.438;18.942;2024-03-02T13:25:27;51.72;;;36.55;;
23406;SDS011;11876;53.438;18.942;2024-03-02T13:28:34;49.20;;;34.97;;
23406;SDS011;11876;53.438;18.942;2024-03-02T13:31:40;46.10;;;33.40;;
23406;SDS011;11876;53.438;18.942;2024-03-02T13:34:46;47.13;;;33.92;;
23406;SDS011;11876;53.438;18.942;2024-03-02T13:37:55;49.35;;;35.53;;
23406;SDS011;11876;53.438;18.942;2024-03-02T13:41:03;46.08;;;33.03;;
23406;SDS011;11876;53.438;18.942;2024-03-02T13:44:11;41.13;;;31.13;;
23406;SDS011;11876;53.438;18.942;2024-03-02T13:47:14;42.00;;;30.73;;
23406;SDS011;11876;53.438;18.942;2024-03-02T13:50:23;40.90;;;32.28;;
23406;SDS011;11876;53.438;18.942;2024-03-02T13:53:34;42.80;;;31.00;;
23406;SDS011;11876;53.438;18.942;2024-03-02T13:56:45;38.30;;;30.20;;
23406;SDS011;11876;53.438;18.942;2024-03-02T13:59:51;48.38;;;39.35;;
23406;SDS011;11876;53.438;18.942;2024-03-02T14:02:58;66.75;;;59.65;;
23406;SDS011;11876;53.438;18.942;2024-03-02T14:06:04;52.47;;;46.92;;
23406;SDS011;11876;53.438;18.942;2024-03-02T14:09:15;44.88;;;36.10;;
23406;SDS011;11876;53.438;18.942;2024-03-02T14:12:19;49.67;;;41.95;;
23406;SDS011;11876;53.438;18.942;2024-03-02T14:15:26;51.97;;;37.35;;
23406;SDS011;11876;53.438;18.942;2024-03-02T14:18:35;46.58;;;35.15;;
23406;SDS011;11876;53.438;18.942;2024-03-02T14:21:43;49.08;;;36.65;;
23406;SDS011;11876;53.438;18.942;2024-03-02T14:24:51;117.50;;;84.35;;
23406;SDS011;11876;53.438;18.942;2024-03-02T14:28:01;100.85;;;71.72;;
23406;SDS011;11876;53.438;18.942;2024-03-02T14:31:36;177.57;;;124.85;;
23406;SDS011;11876;53.438;18.942;2024-03-02T14:34:41;117.43;;;83.97;;
23406;SDS011;11876;53.438;18.942;2024-03-02T14:37:47;85.53;;;60.47;;
23406;SDS011;11876;53.438;18.942;2024-03-02T14:40:52;60.47;;;44.85;;
23406;SDS011;11876;53.438;18.942;2024-03-02T14:44:00;101.88;;;73.05;;
23406;SDS011;11876;53.438;18.942;2024-03-02T14:47:09;127.15;;;84.57;;
23406;SDS011;11876;53.438;18.942;2024-03-02T14:50:16;80.22;;;57.10;;
23406;SDS011;11876;53.438;18.942;2024-03-02T14:53:23;106.72;;;80.75;;
23406;SDS011;11876;53.438;18.942;2024-03-02T14:56:30;116.82;;;83.43;;
23406;SDS011;11876;53.438;18.942;2024-03-02T14:59:33;69.47;;;54.75;;
23406;SDS011;11876;53.438;18.942;2024-03-02T15:02:39;56.13;;;40.53;;
23406;SDS011;11876;53.438;18.942;2024-03-02T15:05:48;54.95;;;39.80;;
23406;SDS011;11876;53.438;18.942;2024-03-02T15:08:53;61.10;;;41.28;;
23406;SDS011;11876;53.438;18.942;2024-03-02T15:11:59;56.03;;;41.70;;
23406;SDS011;11876;53.438;18.942;2024-03-02T15:15:05;57.22;;;42.22;;
23406;SDS011;11876;53.438;18.942;2024-03-02T15:18:12;56.03;;;39.45;;
23406;SDS011;11876;53.438;18.942;2024-03-02T15:21:20;55.65;;;36.10;;
23406;SDS011;11876;53.438;18.942;2024-03-02T15:24:28;57.60;;;37.75;;
23406;SDS011;11876;53.438;18.942;2024-03-02T15:27:31;90.30;;;48.80;;
23406;SDS011;11876;53.438;18.942;2024-03-02T15:30:52;96.22;;;53.65;;
23406;SDS011;11876;53.438;18.942;2024-03-02T15:33:57;92.80;;;57.85;;
23406;SDS011;11876;53.438;18.942;2024-03-02T15:37:05;99.00;;;68.53;;
23406;SDS011;11876;53.438;18.942;2024-03-02T15:40:08;100.25;;;69.28;;
23406;SDS011;11876;53.438;18.942;2024-03-02T15:43:13;178.45;;;114.55;;
23406;SDS011;11876;53.438;18.942;2024-03-02T15:49:32;54.22;;;39.20;;
23406;SDS011;11876;53.438;18.942;2024-03-02T15:52:40;66.55;;;48.20;;
23406;SDS011;11876;53.438;18.942;2024-03-02T15:55:44;68.38;;;47.08;;
23406;SDS011;11876;53.438;18.942;2024-03-02T15:58:47;62.90;;;43.67;;
23406;SDS011;11876;53.438;18.942;2024-03-02T16:01:52;63.92;;;43.75;;
23406;SDS011;11876;53.438;18.942;2024-03-02T16:04:59;82.82;;;57.40;;
23406;SDS011;11876;53.438;18.942;2024-03-02T16:08:04;93.97;;;68.13;;
23406;SDS011;11876;53.438;18.942;2024-03-02T16:11:13;82.40;;;54.00;;
23406;SDS011;11876;53.438;18.942;2024-03-02T16:14:16;70.90;;;47.67;;
23406;SDS011;11876;53.438;18.942;2024-03-02T16:17:19;48.67;;;32.00;;
23406;SDS011;11876;53.438;18.942;2024-03-02T16:20:22;71.10;;;47.25;;
23406;SDS011;11876;53.438;18.942;2024-03-02T16:23:26;62.00;;;43.45;;
23406;SDS011;11876;53.438;18.942;2024-03-02T16:26:32;77.57;;;49.92;;
23406;SDS011;11876;53.438;18.942;2024-03-02T16:29:39;59.78;;;41.42;;
23406;SDS011;11876;53.438;18.942;2024-03-02T16:32:41;91.22;;;59.08;;
23406;SDS011;11876;53.438;18.942;2024-03-02T16:35:45;61.10;;;36.28;;
23406;SDS011;11876;53.438;18.942;2024-03-02T16:38:53;64.72;;;40.63;;
23406;SDS011;11876;53.438;18.942;2024-03-02T16:42:00;52.05;;;35.00;;
23406;SDS011;11876;53.438;18.942;2024-03-02T16:45:10;66.28;;;40.97;;
23406;SDS011;11876;53.438;18.942;2024-03-02T16:48:17;63.40;;;40.08;;
23406;SDS011;11876;53.438;18.942;2024-03-02T16:51:24;52.30;;;36.53;;
23406;SDS011;11876;53.438;18.942;2024-03-02T16:54:34;50.03;;;33.05;;
23406;SDS011;11876;53.438;18.942;2024-03-02T16:57:42;50.72;;;37.00;;
23406;SDS011;11876;53.438;18.942;2024-03-02T17:00:50;61.88;;;43.58;;
23406;SDS011;11876;53.438;18.942;2024-03-02T17:03:58;58.63;;;40.05;;
23406;SDS011;11876;53.438;18.942;2024-03-02T17:07:03;58.53;;;41.45;;
23406;SDS011;11876;53.438;18.942;2024-03-02T17:10:07;55.45;;;36.78;;
23406;SDS011;11876;53.438;18.942;2024-03-02T17:13:13;64.57;;;43.72;;
23406;SDS011;11876;53.438;18.942;2024-03-02T17:16:20;57.60;;;38.90;;
23406;SDS011;11876;53.438;18.942;2024-03-02T17:19:23;61.70;;;39.92;;
23406;SDS011;11876;53.438;18.942;2024-03-02T17:22:29;52.88;;;36.40;;
23406;SDS011;11876;53.438;18.942;2024-03-02T17:25:34;59.28;;;36.78;;
23406;SDS011;11876;53.438;18.942;2024-03-02T17:28:48;54.95;;;40.03;;
23406;SDS011;11876;53.438;18.942;2024-03-02T17:31:54;55.45;;;36.80;;
23406;SDS011;11876;53.438;18.942;2024-03-02T17:34:59;53.03;;;35.25;;
23406;SDS011;11876;53.438;18.942;2024-03-02T17:38:02;54.33;;;36.35;;
23406;SDS011;11876;53.438;18.942;2024-03-02T17:41:13;52.55;;;34.22;;
23406;SDS011;11876;53.438;18.942;2024-03-02T17:44:17;54.83;;;36.03;;
23406;SDS011;11876;53.438;18.942;2024-03-02T17:47:23;56.83;;;37.90;;
23406;SDS011;11876;53.438;18.942;2024-03-02T17:50:32;47.78;;;33.85;;
23406;SDS011;11876;53.438;18.942;2024-03-02T17:53:40;54.38;;;36.80;;
23406;SDS011;11876;53.438;18.942;2024-03-02T17:56:43;58.80;;;37.70;;
23406;SDS011;11876;53.438;18.942;2024-03-02T17:59:52;61.22;;;44.08;;
23406;SDS011;11876;53.438;18.942;2024-03-02T18:03:00;60.58;;;38.55;;
23406;SDS011;11876;53.438;18.942;2024-03-02T18:06:04;58.75;;;41.15;;
23406;SDS011;11876;53.438;18.942;2024-03-02T18:09:17;54.72;;;35.88;;
23406;SDS011;11876;53.438;18.942;2024-03-02T18:12:28;56.10;;;39.78;;
23406;SDS011;11876;53.438;18.942;2024-03-02T18:15:32;60.22;;;37.60;;
23406;SDS011;11876;53.438;18.942;2024-03-02T18:18:37;51.15;;;36.05;;
23406;SDS011;11876;53.438;18.942;2024-03-02T18:21:43;56.95;;;37.95;;
23406;SDS011;11876;53.438;18.942;2024-03-02T18:24:54;52.80;;;36.45;;